Time;durP1;ratioP1;P1;durP2;ratioP2;P2;SDS_P1;SDS_P2;PMS_P1;PMS_P2;Temp;Humidity;BMP_temperature;BMP_pressure;BME280_temperature;BME280_humidity;BME280_pressure;Samples;Min_cycle;Max_cycle;Signal;HPM_P1;HPM_P2
2022/06/07 00:02:46;;;;;;;5.03;3.47;;;11.90;99.90;;;;;;7329121;32;20371;-60
2022/06/07 00:06:48;;;;;;;6.40;3.53;;;11.80;99.90;;;;;;7328430;32;20228;-60
2022/06/07 00:10:50;;;;;;;8.20;3.75;;;11.80;99.90;;;;;;7337702;32;20122;-60
2022/06/07 00:14:52;;;;;;;10.00;3.80;;;11.70;99.90;;;;;;7328024;32;20142;-61
2022/06/07 00:18:54;;;;;;;5.62;4.05;;;11.60;99.90;;;;;;7323307;32;20108;-60
2022/06/07 00:22:56;;;;;;;6.87;4.07;;;11.50;99.90;;;;;;7324896;32;20183;-59
2022/06/07 00:26:58;;;;;;;4.50;4.07;;;11.40;99.90;;;;;;7327067;32;20103;-59
2022/06/07 00:30:59;;;;;;;8.52;4.45;;;11.40;99.90;;;;;;7324928;32;20096;-59
2022/06/07 00:35:02;;;;;;;8.60;4.15;;;11.20;99.90;;;;;;7322579;32;20161;-61
2022/06/07 00:39:05;;;;;;;11.45;4.40;;;11.30;99.90;;;;;;7318907;32;20208;-58
2022/06/07 00:43:07;;;;;;;8.18;4.45;;;11.10;99.90;;;;;;7321496;32;20173;-59
2022/06/07 00:47:15;;;;;;;11.23;4.90;;;11.10;99.90;;;;;;7327137;32;20443;-59
2022/06/07 00:51:16;;;;;;;4.68;4.20;;;11.10;99.90;;;;;;7313660;32;20228;-59
2022/06/07 00:55:18;;;;;;;6.30;4.30;;;11.00;99.90;;;;;;7321134;32;20191;-60
2022/06/07 00:59:20;;;;;;;8.63;4.82;;;11.00;99.90;;;;;;7330778;32;20640;-60
2022/06/07 01:03:22;;;;;;;7.70;4.53;;;10.90;99.90;;;;;;7322649;32;20214;-59
2022/06/07 01:11:44;;;;;;;5.28;4.78;;;10.80;99.90;;;;;;7323918;32;20131;-59
2022/06/07 01:15:47;;;;;;;7.25;5.10;;;10.80;99.90;;;;;;7323140;32;20200;-59
2022/06/07 01:19:48;;;;;;;6.57;5.32;;;10.80;99.90;;;;;;7322743;32;20103;-59
2022/06/07 01:23:52;;;;;;;7.72;5.85;;;10.80;99.90;;;;;;7322474;32;20107;-61
2022/06/07 01:27:53;;;;;;;7.50;6.25;;;10.90;99.90;;;;;;7320307;32;20100;-61
2022/06/07 01:31:55;;;;;;;8.30;7.05;;;10.90;99.90;;;;;;7326129;32;20556;-61
2022/06/07 01:36:06;;;;;;;10.63;7.03;;;10.90;99.90;;;;;;7324273;32;20218;-61
2022/06/07 01:44:40;;;;;;;10.27;7.45;;;11.00;99.90;;;;;;7318023;32;20130;-60
2022/06/07 01:48:42;;;;;;;11.55;8.27;;;11.00;99.90;;;;;;7323659;32;20099;-60
2022/06/07 01:52:43;;;;;;;9.88;7.15;;;11.00;99.90;;;;;;7321889;32;20122;-60
2022/06/07 01:56:45;;;;;;;9.95;7.18;;;11.00;99.90;;;;;;7321432;32;20114;-61
2022/06/07 02:00:47;;;;;;;9.15;6.85;;;11.00;99.90;;;;;;7323709;32;20221;-61
2022/06/07 02:04:48;;;;;;;8.45;6.40;;;11.00;99.90;;;;;;7322288;32;20141;-61
2022/06/07 02:08:50;;;;;;;11.30;7.50;;;11.00;99.90;;;;;;7321337;32;20099;-63
2022/06/07 02:12:52;;;;;;;9.48;6.50;;;11.10;99.90;;;;;;7319571;32;20324;-62
2022/06/07 02:16:54;;;;;;;9.30;7.47;;;11.20;99.90;;;;;;7316951;32;20146;-61
2022/06/07 02:20:57;;;;;;;8.82;6.75;;;11.20;99.90;;;;;;7322637;32;20099;-63
2022/06/07 02:24:59;;;;;;;10.35;7.18;;;11.20;99.90;;;;;;7322486;32;20095;-62
2022/06/07 02:29:30;;;;;;;8.95;7.32;;;11.10;99.90;;;;;;7328155;32;20235;-61
2022/06/07 02:33:37;;;;;;;9.52;6.75;;;11.10;99.90;;;;;;7321119;32;20205;-63
2022/06/07 02:37:39;;;;;;;9.98;6.20;;;11.20;99.90;;;;;;7323280;32;20131;-62
2022/06/07 02:41:42;;;;;;;11.43;6.30;;;11.10;99.90;;;;;;7323870;32;20108;-60
2022/06/07 02:45:43;;;;;;;6.20;5.35;;;11.10;99.90;;;;;;7322398;32;20099;-60
2022/06/07 02:49:45;;;;;;;8.45;5.57;;;11.20;99.90;;;;;;7323797;32;20183;-60
2022/06/07 02:53:47;;;;;;;8.55;5.57;;;11.20;99.90;;;;;;7320993;32;20194;-61
2022/06/07 02:57:49;;;;;;;5.53;4.68;;;11.20;99.90;;;;;;7322318;32;20534;-62
2022/06/07 03:01:51;;;;;;;8.57;5.10;;;11.10;99.90;;;;;;7322725;32;20527;-59
2022/06/07 03:05:53;;;;;;;10.27;5.20;;;11.10;99.90;;;;;;7320240;32;20107;-60
2022/06/07 03:09:55;;;;;;;7.80;4.95;;;11.10;99.90;;;;;;7328790;32;20100;-60
2022/06/07 03:13:57;;;;;;;5.65;4.30;;;11.10;99.90;;;;;;7324458;32;20208;-60
2022/06/07 03:17:58;;;;;;;5.53;4.12;;;11.00;99.90;;;;;;7321088;32;20242;-59
2022/06/07 03:22:00;;;;;;;6.03;3.95;;;11.00;99.90;;;;;;7320526;32;20099;-60
2022/06/07 03:26:07;;;;;;;6.57;4.32;;;11.10;99.90;;;;;;7321071;32;20195;-60
2022/06/07 03:30:10;;;;;;;7.93;3.70;;;11.00;99.90;;;;;;7321073;32;20174;-60
2022/06/07 03:34:12;;;;;;;5.82;3.55;;;11.00;99.90;;;;;;7321201;32;20130;-62
2022/06/07 03:38:14;;;;;;;5.40;3.60;;;11.00;99.90;;;;;;7320130;32;20205;-58
2022/06/07 03:42:15;;;;;;;8.20;4.10;;;11.00;99.90;;;;;;7323330;32;20133;-59
2022/06/07 03:46:20;;;;;;;8.52;3.72;;;11.00;99.90;;;;;;7315585;32;20253;-59
2022/06/07 03:50:22;;;;;;;6.32;3.58;;;11.00;99.90;;;;;;7315780;32;22009;-60
2022/06/07 03:54:23;;;;;;;7.32;3.42;;;11.00;99.90;;;;;;7317904;32;20126;-60
2022/06/07 03:58:25;;;;;;;7.37;3.33;;;11.00;99.90;;;;;;7316878;32;20227;-60
2022/06/07 04:02:27;;;;;;;6.45;3.15;;;11.10;99.90;;;;;;7311591;32;20226;-60
2022/06/07 04:06:39;;;;;;;7.62;3.33;;;11.10;99.90;;;;;;7325948;32;20118;-61
2022/06/07 04:10:56;;;;;;;5.87;3.45;;;11.10;99.90;;;;;;7327714;32;20103;-59
2022/06/07 04:14:57;;;;;;;5.77;3.27;;;11.20;99.90;;;;;;7318436;32;20734;-59
2022/06/07 04:18:59;;;;;;;6.80;2.62;;;11.40;99.90;;;;;;7321141;32;20191;-61
2022/06/07 04:23:01;;;;;;;4.25;2.78;;;11.60;99.90;;;;;;7327404;32;20131;-62
2022/06/07 04:27:03;;;;;;;8.68;2.90;;;11.80;99.90;;;;;;7322055;32;20118;-60
2022/06/07 04:31:14;;;;;;;5.50;2.67;;;12.00;99.90;;;;;;7320146;32;20171;-63
2022/06/07 04:35:18;;;;;;;4.07;2.40;;;12.40;99.90;;;;;;7326406;32;20104;-61
2022/06/07 04:39:20;;;;;;;8.95;2.10;;;12.90;99.90;;;;;;7322582;32;20254;-63
2022/06/07 04:43:21;;;;;;;5.62;2.00;;;13.30;99.90;;;;;;7322857;32;20103;-60
2022/06/07 04:47:23;;;;;;;3.80;1.70;;;13.60;99.90;;;;;;7322768;32;20702;-63
2022/06/07 04:51:28;;;;;;;4.47;1.87;;;13.90;99.90;;;;;;7322779;32;20883;-63
2022/06/07 04:55:29;;;;;;;5.07;2.08;;;14.00;99.90;;;;;;7324791;32;20230;-65
2022/06/07 04:59:31;;;;;;;3.90;1.73;;;14.40;99.90;;;;;;7322357;32;20104;-62
2022/06/07 05:03:33;;;;;;;4.07;1.60;;;14.80;99.90;;;;;;7321748;32;20568;-62
2022/06/07 05:07:35;;;;;;;5.00;1.90;;;15.10;99.90;;;;;;7324007;32;20658;-62
2022/06/07 05:11:37;;;;;;;8.93;1.52;;;15.20;99.90;;;;;;7328424;32;20118;-63
2022/06/07 05:15:39;;;;;;;4.35;1.52;;;15.20;99.90;;;;;;7328165;32;20575;-63
2022/06/07 05:19:40;;;;;;;3.60;1.90;;;15.00;99.90;;;;;;7329038;32;20107;-62
2022/06/07 05:23:43;;;;;;;3.33;1.60;;;14.90;99.90;;;;;;7322151;32;20194;-62
2022/06/07 05:27:50;;;;;;;6.18;1.70;;;14.90;99.90;;;;;;7321498;32;20111;-65
2022/06/07 05:31:52;;;;;;;4.82;1.90;;;14.80;99.90;;;;;;7316335;32;20186;-64
2022/06/07 05:35:55;;;;;;;3.15;1.67;;;14.80;99.90;;;;;;7327863;32;20188;-65
2022/06/07 05:39:58;;;;;;;3.62;1.58;;;14.70;99.90;;;;;;7318540;32;20298;-64
2022/06/07 05:44:00;;;;;;;6.80;1.67;;;14.70;99.90;;;;;;7318836;32;20556;-65
2022/06/07 05:48:01;;;;;;;4.70;2.12;;;14.80;99.90;;;;;;7320850;32;20122;-65
2022/06/07 05:52:04;;;;;;;4.40;1.33;;;14.80;99.90;;;;;;7329892;32;20129;-65
2022/06/07 05:56:08;;;;;;;6.03;1.73;;;14.90;99.90;;;;;;7321868;32;20541;-64
2022/06/07 06:00:10;;;;;;;6.12;1.90;;;15.00;99.90;;;;;;7319135;32;20534;-66
2022/06/07 06:04:12;;;;;;;7.50;1.77;;;15.20;99.90;;;;;;7327230;32;20468;-61
2022/06/07 06:12:34;;;;;;;3.60;1.40;;;16.00;99.90;;;;;;7322396;32;20138;-63
2022/06/07 06:16:37;;;;;;;5.00;1.58;;;17.20;99.90;;;;;;7318387;32;20519;-64
2022/06/07 06:20:38;;;;;;;3.80;1.30;;;18.20;99.90;;;;;;7324865;32;20173;-63
2022/06/07 06:24:40;;;;;;;6.45;1.45;;;19.00;99.90;;;;;;7319553;32;20141;-65
2022/06/07 06:28:42;;;;;;;6.30;1.40;;;19.00;99.90;;;;;;7320360;32;20125;-65
2022/06/07 06:32:44;;;;;;;3.15;1.00;;;19.40;99.90;;;;;;7318403;32;20206;-64
2022/06/07 06:36:47;;;;;;;5.25;1.08;;;19.90;99.90;;;;;;7318561;32;20104;-64
2022/06/07 06:40:53;;;;;;;3.97;1.20;;;20.40;99.90;;;;;;7313385;32;20183;-64
2022/06/07 06:44:55;;;;;;;5.20;1.40;;;20.20;99.90;;;;;;7324364;32;20096;-64
2022/06/07 06:48:58;;;;;;;7.47;1.20;;;19.60;99.90;;;;;;7321243;32;20190;-64
2022/06/07 06:52:59;;;;;;;7.22;1.58;;;19.50;99.90;;;;;;7312536;32;20108;-65
2022/06/07 06:57:01;;;;;;;5.18;1.27;;;19.80;99.90;;;;;;7316734;32;20107;-64
2022/06/07 07:01:09;;;;;;;5.87;1.30;;;19.40;99.90;;;;;;7318027;32;20503;-64
2022/06/07 07:05:13;;;;;;;4.20;1.30;;;19.30;99.90;;;;;;7320056;32;20096;-63
2022/06/07 07:09:17;;;;;;;5.22;1.10;;;19.10;99.90;;;;;;7321467;32;20092;-63
2022/06/07 07:13:19;;;;;;;7.25;1.33;;;19.40;99.90;;;;;;7321304;32;20527;-63
2022/06/07 07:17:21;;;;;;;3.95;1.30;;;19.70;99.90;;;;;;7319937;32;20121;-64
2022/06/07 07:21:27;;;;;;;5.72;1.27;;;19.90;99.90;;;;;;7324080;32;20123;-64
2022/06/07 07:25:29;;;;;;;3.73;1.20;;;19.90;99.90;;;;;;7317801;32;20138;-63
2022/06/07 07:29:30;;;;;;;5.57;1.30;;;19.80;99.90;;;;;;7320405;32;20180;-64
2022/06/07 07:33:34;;;;;;;4.90;1.10;;;19.20;99.90;;;;;;7319304;32;20848;-63
2022/06/07 07:37:36;;;;;;;4.62;1.08;;;18.50;99.90;;;;;;7320959;32;20114;-64
2022/06/07 07:41:39;;;;;;;4.70;1.70;;;18.40;99.90;;;;;;7320980;32;20182;-64
2022/06/07 07:45:41;;;;;;;7.78;1.40;;;18.50;99.90;;;;;;7328201;32;20133;-64
2022/06/07 07:49:43;;;;;;;3.30;1.20;;;18.40;99.90;;;;;;7324161;32;20097;-64
2022/06/07 07:53:45;;;;;;;2.45;1.20;;;18.40;99.90;;;;;;7327555;32;20110;-65
2022/06/07 07:57:47;;;;;;;5.07;1.48;;;18.30;99.90;;;;;;7321330;32;20496;-64
2022/06/07 08:01:49;;;;;;;4.95;1.00;;;18.50;99.90;;;;;;7322034;32;20123;-65
2022/06/07 08:05:51;;;;;;;2.67;1.12;;;18.70;99.90;;;;;;7325810;32;20235;-64
2022/06/07 08:09:55;;;;;;;4.72;1.23;;;19.00;99.90;;;;;;7319144;32;20252;-64
2022/06/07 08:13:57;;;;;;;6.32;1.27;;;19.30;99.90;;;;;;7320960;32;20103;-63
2022/06/07 08:18:02;;;;;;;3.72;1.23;;;19.60;99.90;;;;;;7316145;32;20104;-64
2022/06/07 08:22:04;;;;;;;3.05;1.30;;;19.60;99.90;;;;;;7319663;32;20808;-64
2022/06/07 08:26:07;;;;;;;4.15;1.27;;;19.40;99.90;;;;;;7318272;32;20602;-63
2022/06/07 08:30:11;;;;;;;3.42;1.42;;;19.50;99.90;;;;;;7317011;32;20150;-63
2022/06/07 08:38:35;;;;;;;3.10;0.90;;;19.60;99.90;;;;;;7319364;32;20241;-63
2022/06/07 08:42:41;;;;;;;5.85;1.10;;;19.40;99.90;;;;;;7321921;32;20541;-64
2022/06/07 08:46:43;;;;;;;1.67;0.90;;;19.10;99.90;;;;;;7313309;32;20256;-64
2022/06/07 08:51:05;;;;;;;4.15;1.10;;;18.80;99.90;;;;;;7324080;32;20313;-64
2022/06/07 08:55:42;;;;;;;2.35;1.08;;;18.60;99.90;;;;;;7324572;32;20199;-64
2022/06/07 08:59:47;;;;;;;6.37;1.10;;;18.50;99.90;;;;;;7310839;32;20583;-63
2022/06/07 09:04:17;;;;;;;3.25;1.15;;;18.60;99.90;;;;;;7331319;32;20134;-63
2022/06/07 09:08:19;;;;;;;3.03;1.30;;;18.50;99.90;;;;;;7320900;32;20131;-63
2022/06/07 09:12:29;;;;;;;3.20;1.10;;;18.70;99.90;;;;;;7331302;32;20137;-63
2022/06/07 09:16:43;;;;;;;3.55;0.95;;;18.90;99.90;;;;;;7314296;32;20248;-61
2022/06/07 09:20:48;;;;;;;4.03;0.80;;;19.00;99.90;;;;;;7320216;32;20123;-62
2022/06/07 09:24:59;;;;;;;5.07;1.25;;;19.00;99.90;;;;;;7320671;32;20122;-63
2022/06/07 09:29:20;;;;;;;4.65;1.08;;;19.00;99.90;;;;;;7324009;32;20106;-65
2022/06/07 09:33:50;;;;;;;6.00;1.20;;;19.00;99.90;;;;;;7333501;32;20122;-64
2022/06/07 09:38:04;;;;;;;4.22;1.25;;;19.20;99.90;;;;;;7301692;32;20243;-64
2022/06/07 09:42:22;;;;;;;3.40;1.20;;;19.50;99.90;;;;;;7324501;32;20122;-62
2022/06/07 09:46:26;;;;;;;6.12;1.05;;;19.70;99.90;;;;;;7326379;32;20147;-64
2022/06/07 09:50:34;;;;;;;4.00;1.20;;;19.80;99.90;;;;;;7321230;32;20630;-63
2022/06/07 09:54:41;;;;;;;4.60;1.20;;;19.90;99.90;;;;;;7315803;32;20126;-63
2022/06/07 09:59:12;;;;;;;3.10;1.10;;;19.80;99.90;;;;;;7323201;32;20099;-64
2022/06/07 10:03:37;;;;;;;2.85;1.05;;;20.00;99.90;;;;;;7308961;32;20107;-64
2022/06/07 10:08:00;;;;;;;5.87;1.67;;;20.10;99.90;;;;;;7308179;32;20138;-63
2022/06/07 10:12:20;;;;;;;3.95;0.85;;;19.80;99.90;;;;;;7315255;32;20689;-64
2022/06/07 10:16:30;;;;;;;2.28;0.90;;;19.90;99.90;;;;;;7320485;32;20413;-64
2022/06/07 10:20:44;;;;;;;2.55;1.00;;;19.60;99.90;;;;;;7319933;32;20207;-64
2022/06/07 10:25:10;;;;;;;2.92;1.10;;;19.70;99.90;;;;;;7316702;32;20104;-63
2022/06/07 10:29:41;;;;;;;5.30;1.20;;;20.00;99.90;;;;;;7320864;32;20095;-64
2022/06/07 10:34:02;;;;;;;1.92;0.90;;;20.60;99.90;;;;;;7325074;32;20512;-64
2022/06/07 10:38:15;;;;;;;6.30;0.85;;;21.30;99.90;;;;;;7323281;32;20652;-64
2022/06/07 10:42:33;;;;;;;3.12;0.57;;;21.70;99.90;;;;;;7320698;32;20159;-63
2022/06/07 10:46:39;;;;;;;3.42;0.70;;;21.70;99.90;;;;;;7319863;32;20099;-64
2022/06/07 10:52:20;;;;;;;3.75;0.88;;;21.80;99.90;;;;;;7324853;32;20166;-64
2022/06/07 10:55:54;;;;;;;3.62;0.80;;;21.80;99.90;;;;;;7313280;32;20174;-64
2022/06/07 11:00:01;;;;;;;4.18;0.80;;;21.80;99.90;;;;;;7313072;32;20153;-64
2022/06/07 11:09:19;;;;;;;2.60;0.70;;;21.50;99.90;;;;;;7326742;32;20125;-64
2022/06/07 11:13:51;;;;;;;2.12;0.90;;;21.40;99.90;;;;;;7320354;32;20209;-64
2022/06/07 11:18:02;;;;;;;2.15;0.80;;;21.10;99.90;;;;;;7323351;32;20537;-64
2022/06/07 11:22:18;;;;;;;2.95;0.70;;;21.10;99.90;;;;;;7331068;32;20164;-64
2022/06/07 11:26:21;;;;;;;4.28;1.20;;;20.90;99.90;;;;;;7321307;32;20092;-63
2022/06/07 11:30:41;;;;;;;2.75;0.70;;;21.00;99.90;;;;;;7323223;32;20222;-65
2022/06/07 11:34:43;;;;;;;3.78;0.85;;;20.90;99.90;;;;;;7321190;32;20099;-62
2022/06/07 11:38:57;;;;;;;3.97;1.02;;;20.90;99.90;;;;;;7330992;32;20103;-63
2022/06/07 11:42:58;;;;;;;3.58;0.80;;;20.70;99.90;;;;;;7328521;32;20114;-64
2022/06/07 11:47:22;;;;;;;5.37;1.05;;;20.70;99.90;;;;;;7317268;32;20654;-63
2022/06/07 11:51:24;;;;;;;2.00;0.90;;;20.70;99.90;;;;;;7322054;32;20092;-63
2022/06/07 11:55:38;;;;;;;4.87;0.90;;;20.70;99.90;;;;;;7326561;32;20227;-63
2022/06/07 11:59:44;;;;;;;2.30;0.90;;;20.70;99.90;;;;;;7324267;32;20305;-62
2022/06/07 12:04:04;;;;;;;4.30;1.20;;;20.70;99.90;;;;;;7319573;32;20550;-63
2022/06/07 12:08:28;;;;;;;2.97;1.23;;;20.80;99.90;;;;;;7319716;32;20370;-63
2022/06/07 12:12:37;;;;;;;3.25;1.10;;;20.90;99.90;;;;;;7320958;32;20508;-63
2022/06/07 12:16:42;;;;;;;3.53;1.12;;;20.90;99.90;;;;;;7325067;32;20513;-64
2022/06/07 12:20:52;;;;;;;1.90;1.10;;;20.80;99.90;;;;;;7323566;32;20182;-63
2022/06/07 12:24:53;;;;;;;4.50;1.20;;;20.60;99.90;;;;;;7315279;32;20593;-64
2022/06/07 12:29:18;;;;;;;5.05;1.05;;;20.40;99.90;;;;;;7325739;32;20519;-63
2022/06/07 12:33:32;;;;;;;1.62;0.90;;;20.20;99.90;;;;;;7317850;32;20213;-64
2022/06/07 12:37:34;;;;;;;4.55;1.00;;;20.00;99.90;;;;;;7321117;32;20099;-63
2022/06/07 12:42:04;;;;;;;3.40;0.85;;;19.80;99.90;;;;;;7317484;32;20164;-63
2022/06/07 12:46:17;;;;;;;4.95;0.90;;;19.50;99.90;;;;;;7315774;32;20119;-63
2022/06/07 12:50:24;;;;;;;2.80;1.00;;;19.30;99.90;;;;;;7322861;32;20289;-64
2022/06/07 12:54:28;;;;;;;2.37;0.88;;;19.30;99.90;;;;;;7312632;32;20547;-63
2022/06/07 12:58:38;;;;;;;0.80;0.50;;;19.20;99.90;;;;;;7322166;32;20108;-63
2022/06/07 13:02:52;;;;;;;3.10;0.65;;;19.20;99.90;;;;;;7320074;32;20590;-63
2022/06/07 13:07:01;;;;;;;7.68;0.90;;;19.10;99.90;;;;;;7320332;32;20104;-63
2022/06/07 13:11:23;;;;;;;3.95;1.30;;;19.10;99.90;;;;;;7319008;32;20186;-64
2022/06/07 13:15:29;;;;;;;5.57;1.73;;;18.90;99.90;;;;;;7317412;32;20697;-62
2022/06/07 13:19:40;;;;;;;5.03;1.42;;;18.60;99.90;;;;;;7315993;32;20108;-62
2022/06/07 13:23:44;;;;;;;4.70;2.40;;;18.30;99.90;;;;;;7311714;32;20234;-63
2022/06/07 13:28:04;;;;;;;5.22;2.40;;;18.30;99.90;;;;;;7312472;32;20484;-62
2022/06/07 13:32:21;;;;;;;7.22;2.60;;;17.90;99.90;;;;;;7309416;32;20210;-62
2022/06/07 13:36:35;;;;;;;6.82;3.10;;;17.90;99.90;;;;;;7315875;32;20098;-65
2022/06/07 13:40:37;;;;;;;4.43;2.70;;;17.70;99.90;;;;;;7319813;32;20126;-63
2022/06/07 13:44:45;;;;;;;6.62;4.53;;;17.50;99.90;;;;;;7321295;32;20460;-64
2022/06/07 13:53:26;;;;;;;7.72;4.65;;;17.00;99.90;;;;;;7318512;32;20241;-62
2022/06/07 13:57:29;;;;;;;7.35;5.43;;;16.80;99.90;;;;;;7319138;32;20408;-62
2022/06/07 14:01:38;;;;;;;7.07;5.10;;;16.60;99.90;;;;;;7316306;32;20108;-62
2022/06/07 14:05:40;;;;;;;9.90;5.70;;;16.40;99.90;;;;;;7323967;32;20128;-62
2022/06/07 14:09:43;;;;;;;7.68;5.22;;;16.40;99.90;;;;;;7320492;32;20575;-63
2022/06/07 14:13:45;;;;;;;8.57;5.47;;;16.40;99.90;;;;;;7324068;32;20118;-63
2022/06/07 14:17:49;;;;;;;6.80;5.05;;;16.30;99.90;;;;;;7321408;32;20104;-62
2022/06/07 14:21:52;;;;;;;6.40;3.33;;;16.30;99.90;;;;;;7322764;32;20209;-63
2022/06/07 14:25:53;;;;;;;3.08;2.78;;;16.30;99.90;;;;;;7320923;32;20138;-63
2022/06/07 14:29:55;;;;;;;4.00;3.47;;;16.30;99.90;;;;;;7316294;32;20503;-62
2022/06/07 14:33:57;;;;;;;5.43;3.87;;;16.30;99.90;;;;;;7322762;32;20257;-63
2022/06/07 14:38:00;;;;;;;5.03;3.83;;;16.40;99.90;;;;;;7314495;32;20143;-63
2022/06/07 14:42:02;;;;;;;4.68;3.95;;;16.40;99.90;;;;;;7315380;32;20244;-63
2022/06/07 14:46:16;;;;;;;4.57;3.67;;;16.40;99.90;;;;;;7314900;32;20329;-63
2022/06/07 14:50:21;;;;;;;6.93;4.68;;;16.40;99.90;;;;;;7320652;32;20712;-62
2022/06/07 14:54:25;;;;;;;4.82;3.67;;;16.50;99.90;;;;;;7317409;32;20193;-64
2022/06/07 14:58:27;;;;;;;8.82;3.25;;;16.50;99.90;;;;;;7316640;32;20878;-61
2022/06/07 15:02:33;;;;;;;3.15;2.58;;;16.60;99.90;;;;;;7309548;32;20174;-62
2022/06/07 15:06:39;;;;;;;3.67;1.92;;;16.70;99.90;;;;;;7310673;32;20273;-62
2022/06/07 15:10:42;;;;;;;3.25;2.12;;;17.10;99.90;;;;;;7318284;32;20487;-62
2022/06/07 15:14:45;;;;;;;1.70;1.50;;;17.60;99.90;;;;;;7316303;32;20130;-62
2022/06/07 15:18:48;;;;;;;3.35;1.20;;;17.80;99.90;;;;;;7316969;32;20682;-64
2022/06/07 15:22:50;;;;;;;3.45;1.20;;;17.80;99.90;;;;;;7318438;32;20103;-65
2022/06/07 15:26:53;;;;;;;1.15;0.93;;;18.00;99.90;;;;;;7315857;32;20127;-64
2022/06/07 15:30:55;;;;;;;1.77;0.88;;;18.10;99.90;;;;;;7324139;32;20206;-64
2022/06/07 15:35:02;;;;;;;1.95;0.95;;;18.10;99.90;;;;;;7314718;32;20203;-63
2022/06/07 15:39:13;;;;;;;1.08;0.70;;;18.10;99.90;;;;;;7316768;32;20118;-63
2022/06/07 15:43:35;;;;;;;2.08;0.73;;;18.20;99.90;;;;;;7317673;32;20722;-64
2022/06/07 15:47:38;;;;;;;2.28;1.25;;;18.10;99.90;;;;;;7316872;32;20502;-62
2022/06/07 15:51:40;;;;;;;1.95;1.30;;;18.30;99.90;;;;;;7312183;32;20194;-61
2022/06/07 15:55:43;;;;;;;2.03;0.93;;;18.40;99.90;;;;;;7315699;32;20182;-62
2022/06/07 15:59:44;;;;;;;1.40;0.90;;;18.50;99.90;;;;;;7311944;32;20610;-62
2022/06/07 16:03:46;;;;;;;1.83;1.37;;;18.40;99.90;;;;;;7318321;32;20116;-62
2022/06/07 16:07:49;;;;;;;2.60;1.80;;;18.30;99.90;;;;;;7316685;32;20091;-62
2022/06/07 16:11:51;;;;;;;2.42;1.52;;;18.20;99.90;;;;;;7322349;32;20103;-62
2022/06/07 16:15:55;;;;;;;3.42;1.30;;;18.30;99.90;;;;;;7318202;32;20484;-62
2022/06/07 16:19:58;;;;;;;3.08;1.65;;;18.40;99.90;;;;;;7321651;32;20538;-62
2022/06/07 16:24:00;;;;;;;1.65;1.20;;;18.50;99.90;;;;;;7319202;32;20131;-62
2022/06/07 16:36:47;;;;;;;2.67;1.52;;;18.30;99.90;;;;;;7319879;32;20104;-65
2022/06/07 16:40:49;;;;;;;3.83;1.35;;;18.40;99.90;;;;;;7318020;32;20197;-63
2022/06/07 16:44:51;;;;;;;3.80;1.42;;;18.50;99.90;;;;;;7325647;32;20099;-62
2022/06/07 16:48:54;;;;;;;2.50;1.58;;;18.40;99.90;;;;;;7319319;32;20130;-62
2022/06/07 16:52:56;;;;;;;1.83;1.30;;;18.40;99.90;;;;;;7319500;32;20493;-63
2022/06/07 16:57:06;;;;;;;2.75;1.48;;;18.40;99.90;;;;;;7327446;32;20132;-63
2022/06/07 17:01:11;;;;;;;2.85;1.87;;;18.50;99.90;;;;;;7317498;32;20864;-66
2022/06/07 17:05:13;;;;;;;5.20;2.90;;;18.60;99.90;;;;;;7320256;32;20772;-64
2022/06/07 17:09:16;;;;;;;2.33;1.80;;;18.50;99.90;;;;;;7327278;32;20096;-63
2022/06/07 17:13:17;;;;;;;3.42;1.73;;;18.50;99.90;;;;;;7316705;32;20115;-63
2022/06/07 17:17:20;;;;;;;1.87;1.58;;;18.60;99.90;;;;;;7321200;32;20643;-65
2022/06/07 17:21:24;;;;;;;3.10;1.70;;;18.60;99.90;;;;;;7323014;32;20177;-64
2022/06/07 17:25:28;;;;;;;3.33;1.80;;;18.60;99.90;;;;;;7319704;32;20209;-64
2022/06/07 17:29:30;;;;;;;4.32;1.60;;;18.60;99.90;;;;;;7320453;32;20200;-64
2022/06/07 17:33:33;;;;;;;3.35;1.48;;;18.50;99.90;;;;;;7318252;32;20100;-64
2022/06/07 17:37:36;;;;;;;1.92;1.30;;;18.50;99.90;;;;;;7329901;32;20124;-64
2022/06/07 17:41:38;;;;;;;2.45;1.55;;;18.50;99.90;;;;;;7321785;32;20104;-64
2022/06/07 17:45:40;;;;;;;3.35;1.87;;;18.50;99.90;;;;;;7318559;32;20914;-65
2022/06/07 17:49:42;;;;;;;2.28;1.80;;;18.50;99.90;;;;;;7332988;32;20545;-64
2022/06/07 17:53:44;;;;;;;3.03;2.10;;;18.40;99.90;;;;;;7320169;32;20766;-64
2022/06/07 17:57:47;;;;;;;1.98;1.60;;;18.50;99.90;;;;;;7319869;32;20088;-65
2022/06/07 18:01:49;;;;;;;3.12;1.77;;;18.30;99.90;;;;;;7324276;32;20486;-64
2022/06/07 18:05:51;;;;;;;2.72;1.73;;;18.40;99.90;;;;;;7325130;32;20155;-67
2022/06/07 18:09:54;;;;;;;3.65;2.17;;;18.40;99.90;;;;;;7316448;32;20257;-66
2022/06/07 18:13:59;;;;;;;2.15;1.70;;;18.30;99.90;;;;;;7319061;32;20123;-65
2022/06/07 18:18:01;;;;;;;2.00;1.35;;;18.30;99.90;;;;;;7318152;32;20218;-67
2022/06/07 18:22:03;;;;;;;2.08;1.52;;;18.10;99.90;;;;;;7325843;32;20122;-64
2022/06/07 18:26:08;;;;;;;2.08;1.42;;;18.00;99.90;;;;;;7325863;32;20103;-64
2022/06/07 18:30:12;;;;;;;3.92;1.35;;;18.00;99.90;;;;;;7316563;32;20519;-65
2022/06/07 18:34:17;;;;;;;2.05;1.42;;;17.90;99.90;;;;;;7317855;32;20127;-59
2022/06/07 18:38:19;;;;;;;3.97;2.10;;;17.80;99.90;;;;;;7322519;32;20154;-59
2022/06/07 18:42:21;;;;;;;3.12;2.20;;;17.80;99.90;;;;;;7322822;32;20104;-60
2022/06/07 18:46:22;;;;;;;2.58;2.17;;;17.70;99.90;;;;;;7327007;32;20227;-59
2022/06/07 18:50:30;;;;;;;4.43;1.87;;;17.60;99.90;;;;;;7319240;32;20531;-60
2022/06/07 18:54:32;;;;;;;2.15;1.73;;;17.60;99.90;;;;;;7324856;32;20125;-59
2022/06/07 18:58:35;;;;;;;2.53;2.10;;;17.50;99.90;;;;;;7319026;32;20430;-59
2022/06/07 19:02:37;;;;;;;2.72;2.12;;;17.50;99.90;;;;;;7324092;32;20414;-60
2022/06/07 19:06:38;;;;;;;4.93;2.47;;;17.50;99.90;;;;;;7317631;32;20243;-66
2022/06/07 19:10:40;;;;;;;3.50;2.58;;;17.50;99.90;;;;;;7324353;32;20194;-66
2022/06/07 19:14:43;;;;;;;3.03;2.42;;;17.40;99.90;;;;;;7317074;32;20099;-66
2022/06/07 19:18:49;;;;;;;3.72;2.30;;;17.40;99.90;;;;;;7320284;32;20209;-64
2022/06/07 19:22:51;;;;;;;7.97;3.45;;;17.30;99.90;;;;;;7323126;32;20128;-64
2022/06/07 19:26:55;;;;;;;3.33;2.97;;;17.30;99.90;;;;;;7319097;32;20095;-66
2022/06/07 19:30:59;;;;;;;4.12;2.62;;;17.30;99.90;;;;;;7324273;32;20122;-64
2022/06/07 19:35:01;;;;;;;4.75;3.15;;;17.20;99.90;;;;;;7319368;32;20199;-65
2022/06/07 19:39:03;;;;;;;3.45;3.00;;;17.20;99.90;;;;;;7325492;32;20126;-63
2022/06/07 19:43:05;;;;;;;3.65;3.03;;;17.10;99.90;;;;;;7322816;32;20161;-65
2022/06/07 19:47:07;;;;;;;5.55;3.60;;;17.10;99.90;;;;;;7330098;32;20088;-66
2022/06/07 19:51:15;;;;;;;3.40;2.80;;;17.10;99.90;;;;;;7333559;32;20107;-67
2022/06/07 19:55:23;;;;;;;4.68;3.17;;;17.10;99.90;;;;;;7331522;32;20095;-64
2022/06/07 19:59:25;;;;;;;5.18;4.00;;;17.10;99.90;;;;;;7327864;32;20224;-64
2022/06/07 20:03:27;;;;;;;4.62;4.03;;;17.10;99.90;;;;;;7326691;32;20164;-63
2022/06/07 20:07:29;;;;;;;5.45;4.05;;;17.10;99.90;;;;;;7333260;32;20689;-63
2022/06/07 20:11:31;;;;;;;6.03;4.22;;;17.10;99.90;;;;;;7318562;32;20288;-65
2022/06/07 20:15:33;;;;;;;5.28;3.60;;;17.10;99.90;;;;;;7326458;32;20194;-65
2022/06/07 20:19:35;;;;;;;5.78;4.45;;;17.00;99.90;;;;;;7326544;32;20191;-64
2022/06/07 20:23:37;;;;;;;6.12;5.12;;;16.90;99.90;;;;;;7324978;32;20346;-63
2022/06/07 20:27:43;;;;;;;5.30;4.53;;;16.90;99.90;;;;;;7325672;32;20096;-62
2022/06/07 20:31:45;;;;;;;5.72;4.72;;;17.00;99.90;;;;;;7321483;32;20126;-62
2022/06/07 20:35:47;;;;;;;6.20;5.60;;;17.00;99.90;;;;;;7323653;32;20111;-64
2022/06/07 20:39:49;;;;;;;7.00;4.95;;;17.00;99.90;;;;;;7323508;32;20225;-62
2022/06/07 20:43:55;;;;;;;7.03;5.78;;;17.00;99.90;;;;;;7323430;32;20848;-62
2022/06/07 20:47:57;;;;;;;7.72;6.72;;;17.00;99.90;;;;;;7327283;32;20567;-62
2022/06/07 20:51:59;;;;;;;10.00;6.32;;;16.90;99.90;;;;;;7319110;32;20206;-61
2022/06/07 20:56:05;;;;;;;11.43;6.65;;;16.90;99.90;;;;;;7326270;32;20198;-62
2022/06/07 21:00:10;;;;;;;7.67;6.87;;;16.90;99.90;;;;;;7323513;32;20200;-62
2022/06/07 21:04:11;;;;;;;9.05;7.22;;;16.90;99.90;;;;;;7329899;32;20178;-63
2022/06/07 21:08:13;;;;;;;7.50;6.70;;;16.90;99.90;;;;;;7317086;32;20122;-62
2022/06/07 21:12:15;;;;;;;11.00;8.90;;;16.90;99.90;;;;;;7320641;32;20237;-62
2022/06/07 21:16:17;;;;;;;11.05;8.82;;;16.80;99.90;;;;;;7329674;32;20099;-61
2022/06/07 21:20:23;;;;;;;10.35;8.10;;;16.80;99.90;;;;;;7331921;32;20369;-62
2022/06/07 21:24:25;;;;;;;11.27;9.00;;;16.90;99.90;;;;;;7320249;32;20194;-60
2022/06/07 21:28:26;;;;;;;10.27;9.20;;;16.90;99.90;;;;;;7326701;32;20108;-61
2022/06/07 21:32:28;;;;;;;9.63;8.23;;;16.90;99.90;;;;;;7324173;32;20115;-60
2022/06/07 21:36:30;;;;;;;10.18;7.80;;;16.90;99.90;;;;;;7324493;32;20161;-61
2022/06/07 21:40:39;;;;;;;11.77;10.45;;;16.90;99.90;;;;;;7325819;32;20531;-61
2022/06/07 21:44:41;;;;;;;10.40;9.30;;;16.90;99.90;;;;;;7333259;32;20126;-60
2022/06/07 21:48:43;;;;;;;10.52;9.48;;;16.90;99.90;;;;;;7343031;32;20152;-60
2022/06/07 21:52:45;;;;;;;11.35;10.15;;;16.80;99.90;;;;;;7320124;32;20126;-60